sensor_id;sensor_type;location;lat;lon;timestamp;pressure;altitude;pressure_sealevel;temperature;humidity
47897;BME280;39629;51.400;5.494;2023-05-14T00:02:59;101752.66;;;14.11;100.00
47897;BME280;39629;51.400;5.494;2023-05-14T00:08:02;101742.03;;;14.17;100.00
47897;BME280;39629;51.400;5.494;2023-05-14T00:13:04;101750.03;;;13.99;100.00
47897;BME280;39629;51.400;5.494;2023-05-14T00:18:05;101744.72;;;14.05;100.00
47897;BME280;39629;51.400;5.494;2023-05-14T00:23:12;101735.06;;;13.94;100.00
47897;BME280;39629;51.400;5.494;2023-05-14T00:28:14;101741.25;;;13.96;100.00
47897;BME280;39629;51.400;5.494;2023-05-14T00:33:15;101736.81;;;13.97;100.00
47897;BME280;39629;51.400;5.494;2023-05-14T00:38:18;101731.53;;;13.89;100.00
47897;BME280;39629;51.400;5.494;2023-05-14T00:43:20;101722.72;;;13.83;100.00
47897;BME280;39629;51.400;5.494;2023-05-14T00:48:23;101717.44;;;13.64;100.00
47897;BME280;39629;51.400;5.494;2023-05-14T00:53:28;101707.75;;;13.58;100.00
47897;BME280;39629;51.400;5.494;2023-05-14T00:58:29;101709.53;;;13.56;100.00
47897;BME280;39629;51.400;5.494;2023-05-14T01:03:31;101716.59;;;13.42;100.00
47897;BME280;39629;51.400;5.494;2023-05-14T01:08:48;101711.28;;;13.42;100.00
47897;BME280;39629;51.400;5.494;2023-05-14T01:13:56;101716.59;;;13.14;100.00
47897;BME280;39629;51.400;5.494;2023-05-14T01:19:00;101707.75;;;12.93;100.00
47897;BME280;39629;51.400;5.494;2023-05-14T01:24:05;101708.59;;;12.77;100.00
47897;BME280;39629;51.400;5.494;2023-05-14T01:29:21;101709.50;;;12.76;100.00
47897;BME280;39629;51.400;5.494;2023-05-14T01:34:23;101713.88;;;12.66;100.00
47897;BME280;39629;51.400;5.494;2023-05-14T01:39:28;101705.94;;;12.55;100.00
47897;BME280;39629;51.400;5.494;2023-05-14T01:44:32;101704.94;;;12.39;100.00
47897;BME280;39629;51.400;5.494;2023-05-14T01:49:34;101693.53;;;12.40;100.00
47897;BME280;39629;51.400;5.494;2023-05-14T01:54:37;101696.16;;;12.33;100.00
47897;BME280;39629;51.400;5.494;2023-05-14T01:59:39;101705.88;;;12.44;100.00
47897;BME280;39629;51.400;5.494;2023-05-14T02:04:40;101696.97;;;12.22;100.00
47897;BME280;39629;51.400;5.494;2023-05-14T02:09:43;101700.53;;;12.32;100.00
47897;BME280;39629;51.400;5.494;2023-05-14T02:14:45;101699.59;;;12.15;100.00
47897;BME280;39629;51.400;5.494;2023-05-14T02:19:46;101699.56;;;12.08;100.00
47897;BME280;39629;51.400;5.494;2023-05-14T02:24:50;101695.94;;;11.91;100.00
47897;BME280;39629;51.400;5.494;2023-05-14T02:29:52;101699.41;;;11.78;100.00
47897;BME280;39629;51.400;5.494;2023-05-14T02:34:53;101699.41;;;11.78;100.00
47897;BME280;39629;51.400;5.494;2023-05-14T02:39:56;101688.75;;;11.62;100.00
47897;BME280;39629;51.400;5.494;2023-05-14T02:44:58;101683.44;;;11.56;100.00
47897;BME280;39629;51.400;5.494;2023-05-14T02:50:00;101689.69;;;11.72;100.00
47897;BME280;39629;51.400;5.494;2023-05-14T02:55:06;101680.78;;;11.54;100.00
47897;BME280;39629;51.400;5.494;2023-05-14T03:00:09;101685.13;;;11.48;100.00
47897;BME280;39629;51.400;5.494;2023-05-14T03:05:11;101682.47;;;11.40;100.00
47897;BME280;39629;51.400;5.494;2023-05-14T03:10:14;101687.75;;;11.43;100.00
47897;BME280;39629;51.400;5.494;2023-05-14T03:15:15;101678.81;;;11.25;100.00
47897;BME280;39629;51.400;5.494;2023-05-14T03:20:17;101679.75;;;11.32;100.00
47897;BME280;39629;51.400;5.494;2023-05-14T03:25:21;101667.44;;;11.30;100.00
47897;BME280;39629;51.400;5.494;2023-05-14T03:30:22;101665.66;;;11.27;100.00
47897;BME280;39629;51.400;5.494;2023-05-14T03:35:24;101664.63;;;11.05;100.00
47897;BME280;39629;51.400;5.494;2023-05-14T03:40:27;101662.78;;;10.98;100.00
47897;BME280;39629;51.400;5.494;2023-05-14T03:45:28;101657.47;;;10.90;100.00
47897;BME280;39629;51.400;5.494;2023-05-14T03:50:32;101664.41;;;10.83;100.00
47897;BME280;39629;51.400;5.494;2023-05-14T03:55:35;101657.25;;;10.73;100.00
47897;BME280;39629;51.400;5.494;2023-05-14T04:00:37;101658.84;;;10.55;100.00
47897;BME280;39629;51.400;5.494;2023-05-14T04:05:38;101663.19;;;10.50;100.00
47897;BME280;39629;51.400;5.494;2023-05-14T04:10:41;101677.25;;;10.51;100.00
47897;BME280;39629;51.400;5.494;2023-05-14T04:15:43;101672.88;;;10.54;100.00
47897;BME280;39629;51.400;5.494;2023-05-14T04:20:44;101662.38;;;10.57;100.00
47897;BME280;39629;51.400;5.494;2023-05-14T04:25:47;101670.28;;;10.59;100.00
47897;BME280;39629;51.400;5.494;2023-05-14T04:30:49;101659.72;;;10.56;100.00
47897;BME280;39629;51.400;5.494;2023-05-14T04:35:51;101660.56;;;10.50;100.00
47897;BME280;39629;51.400;5.494;2023-05-14T04:40:54;101655.41;;;10.63;100.00
47897;BME280;39629;51.400;5.494;2023-05-14T04:45:56;101656.34;;;10.68;100.00
47897;BME280;39629;51.400;5.494;2023-05-14T04:50:57;101657.38;;;10.84;100.00
47897;BME280;39629;51.400;5.494;2023-05-14T04:56:00;101655.09;;;11.21;100.00
47897;BME280;39629;51.400;5.494;2023-05-14T05:01:03;101655.19;;;11.36;100.00
47897;BME280;39629;51.400;5.494;2023-05-14T05:06:05;101660.75;;;11.83;100.00
47897;BME280;39629;51.400;5.494;2023-05-14T05:11:08;101671.56;;;12.46;100.00
47897;BME280;39629;51.400;5.494;2023-05-14T05:16:10;101682.22;;;12.85;100.00
47897;BME280;39629;51.400;5.494;2023-05-14T05:21:11;101683.03;;;12.54;100.00
47897;BME280;39629;51.400;5.494;2023-05-14T05:26:14;101683.84;;;12.38;100.00
47897;BME280;39629;51.400;5.494;2023-05-14T05:31:16;101682.09;;;12.41;100.00
47897;BME280;39629;51.400;5.494;2023-05-14T05:36:18;101672.47;;;12.47;100.00
47897;BME280;39629;51.400;5.494;2023-05-14T05:41:21;101677.78;;;12.62;100.00
47897;BME280;39629;51.400;5.494;2023-05-14T05:46:22;101680.47;;;13.24;100.00
47897;BME280;39629;51.400;5.494;2023-05-14T05:51:24;101682.16;;;12.55;100.00
47897;BME280;39629;51.400;5.494;2023-05-14T05:56:27;101686.66;;;13.24;100.00
47897;BME280;39629;51.400;5.494;2023-05-14T06:01:28;101686.59;;;13.49;100.00
47897;BME280;39629;51.400;5.494;2023-05-14T06:06:30;101682.13;;;13.84;100.00
47897;BME280;39629;51.400;5.494;2023-05-14T06:11:34;101676.50;;;14.62;100.00
47897;BME280;39629;51.400;5.494;2023-05-14T06:16:35;101680.19;;;14.35;100.00
47897;BME280;39629;51.400;5.494;2023-05-14T06:21:37;101687.13;;;14.59;100.00
47897;BME280;39629;51.400;5.494;2023-05-14T06:26:40;101699.81;;;15.37;100.00
47897;BME280;39629;51.400;5.494;2023-05-14T06:31:41;101704.09;;;15.56;100.00
47897;BME280;39629;51.400;5.494;2023-05-14T06:36:43;101701.66;;;16.15;100.00
47897;BME280;39629;51.400;5.494;2023-05-14T06:41:46;101699.06;;;16.11;100.00
47897;BME280;39629;51.400;5.494;2023-05-14T06:46:48;101688.56;;;16.70;100.00
47897;BME280;39629;51.400;5.494;2023-05-14T06:51:50;101695.03;;;16.52;100.00
47897;BME280;39629;51.400;5.494;2023-05-14T06:56:53;101688.56;;;16.72;100.00
47897;BME280;39629;51.400;5.494;2023-05-14T07:01:54;101687.25;;;16.97;100.00
47897;BME280;39629;51.400;5.494;2023-05-14T07:06:56;101679.47;;;17.86;100.00
47897;BME280;39629;51.400;5.494;2023-05-14T07:11:59;101682.47;;;17.69;100.00
47897;BME280;39629;51.400;5.494;2023-05-14T07:17:00;101680.31;;;17.43;100.00
47897;BME280;39629;51.400;5.494;2023-05-14T07:22:02;101677.06;;;17.26;100.00
47897;BME280;39629;51.400;5.494;2023-05-14T07:27:05;101678.91;;;17.20;100.00
47897;BME280;39629;51.400;5.494;2023-05-14T07:32:07;101686.56;;;17.41;100.00
47897;BME280;39629;51.400;5.494;2023-05-14T07:37:09;101682.94;;;17.45;100.00
47897;BME280;39629;51.400;5.494;2023-05-14T07:42:12;101682.97;;;17.43;100.00
47897;BME280;39629;51.400;5.494;2023-05-14T07:47:13;101680.03;;;17.06;100.00
47897;BME280;39629;51.400;5.494;2023-05-14T07:52:15;101678.44;;;17.48;100.00
47897;BME280;39629;51.400;5.494;2023-05-14T07:57:18;101679.91;;;17.65;100.00
47897;BME280;39629;51.400;5.494;2023-05-14T08:02:21;101676.63;;;17.52;100.00
47897;BME280;39629;51.400;5.494;2023-05-14T08:07:22;101681.53;;;18.17;100.00
47897;BME280;39629;51.400;5.494;2023-05-14T08:12:26;101678.97;;;18.93;100.00
47897;BME280;39629;51.400;5.494;2023-05-14T08:17:28;101675.06;;;18.71;100.00
47897;BME280;39629;51.400;5.494;2023-05-14T08:22:29;101683.47;;;18.92;100.00
47897;BME280;39629;51.400;5.494;2023-05-14T08:27:32;101677.94;;;18.20;100.00
47897;BME280;39629;51.400;5.494;2023-05-14T08:32:34;101678.94;;;19.30;100.00
47897;BME280;39629;51.400;5.494;2023-05-14T08:37:37;101668.44;;;19.24;100.00
47897;BME280;39629;51.400;5.494;2023-05-14T08:42:40;101669.94;;;19.34;100.00
47897;BME280;39629;51.400;5.494;2023-05-14T08:47:46;101652.56;;;20.15;100.00
47897;BME280;39629;51.400;5.494;2023-05-14T08:52:48;101654.53;;;20.08;100.00
47897;BME280;39629;51.400;5.494;2023-05-14T08:57:52;101644.75;;;20.39;100.00
47897;BME280;39629;51.400;5.494;2023-05-14T09:02:54;101645.16;;;19.95;100.00
47897;BME280;39629;51.400;5.494;2023-05-14T09:07:56;101635.88;;;20.93;100.00
47897;BME280;39629;51.400;5.494;2023-05-14T09:12:59;101624.69;;;20.24;100.00
47897;BME280;39629;51.400;5.494;2023-05-14T09:18:00;101626.72;;;21.76;100.00
47897;BME280;39629;51.400;5.494;2023-05-14T09:23:02;101616.31;;;21.69;100.00
47897;BME280;39629;51.400;5.494;2023-05-14T09:28:07;101620.13;;;22.10;100.00
47897;BME280;39629;51.400;5.494;2023-05-14T09:33:09;101618.63;;;22.03;99.92
47897;BME280;39629;51.400;5.494;2023-05-14T09:38:10;101605.28;;;22.68;99.54
47897;BME280;39629;51.400;5.494;2023-05-14T09:43:13;101605.06;;;22.52;91.10
47897;BME280;39629;51.400;5.494;2023-05-14T09:48:15;101604.94;;;22.55;61.59
47897;BME280;39629;51.400;5.494;2023-05-14T09:53:17;101605.78;;;23.00;55.72
47897;BME280;39629;51.400;5.494;2023-05-14T09:58:20;101601.06;;;22.62;57.26
47897;BME280;39629;51.400;5.494;2023-05-14T10:03:24;101604.63;;;22.63;55.20
47897;BME280;39629;51.400;5.494;2023-05-14T10:08:27;101590.66;;;22.55;59.24
47897;BME280;39629;51.400;5.494;2023-05-14T10:13:36;101591.69;;;21.59;57.31
47897;BME280;39629;51.400;5.494;2023-05-14T10:18:40;101584.16;;;23.65;56.35
47897;BME280;39629;51.400;5.494;2023-05-14T10:23:46;101582.53;;;24.01;56.76
47897;BME280;39629;51.400;5.494;2023-05-14T10:28:50;101578.41;;;23.33;55.76
47897;BME280;39629;51.400;5.494;2023-05-14T10:33:51;101575.00;;;23.69;55.44
47897;BME280;39629;51.400;5.494;2023-05-14T10:38:54;101566.91;;;23.90;55.26
47897;BME280;39629;51.400;5.494;2023-05-14T10:43:58;101562.09;;;23.96;54.69
47897;BME280;39629;51.400;5.494;2023-05-14T10:49:00;101562.25;;;23.74;55.52
47897;BME280;39629;51.400;5.494;2023-05-14T10:54:02;101560.94;;;23.83;55.58
47897;BME280;39629;51.400;5.494;2023-05-14T10:59:05;101555.53;;;24.21;56.40
47897;BME280;39629;51.400;5.494;2023-05-14T11:04:07;101549.50;;;24.16;50.73
47897;BME280;39629;51.400;5.494;2023-05-14T11:09:08;101549.09;;;23.87;55.18
47897;BME280;39629;51.400;5.494;2023-05-14T11:14:12;101537.84;;;23.39;52.24
47897;BME280;39629;51.400;5.494;2023-05-14T11:19:14;101534.97;;;24.01;58.49
47897;BME280;39629;51.400;5.494;2023-05-14T11:24:17;101535.28;;;24.50;55.31
47897;BME280;39629;51.400;5.494;2023-05-14T11:29:20;101531.19;;;24.24;55.29
47897;BME280;39629;51.400;5.494;2023-05-14T11:34:22;101522.28;;;23.27;59.04
47897;BME280;39629;51.400;5.494;2023-05-14T11:39:23;101521.19;;;23.71;60.35
47897;BME280;39629;51.400;5.494;2023-05-14T11:44:26;101518.59;;;23.48;51.17
47897;BME280;39629;51.400;5.494;2023-05-14T11:49:28;101506.81;;;23.72;53.46
47897;BME280;39629;51.400;5.494;2023-05-14T11:54:30;101507.13;;;23.65;51.23
47897;BME280;39629;51.400;5.494;2023-05-14T11:59:33;101511.38;;;24.44;45.95
47897;BME280;39629;51.400;5.494;2023-05-14T12:04:35;101500.84;;;23.84;40.33
47897;BME280;39629;51.400;5.494;2023-05-14T12:09:38;101502.34;;;24.80;40.29
47897;BME280;39629;51.400;5.494;2023-05-14T12:14:42;101498.09;;;25.11;39.94
47897;BME280;39629;51.400;5.494;2023-05-14T12:19:46;101496.41;;;24.91;37.07
47897;BME280;39629;51.400;5.494;2023-05-14T12:24:52;101490.81;;;24.43;37.96
47897;BME280;39629;51.400;5.494;2023-05-14T12:29:59;101477.19;;;25.48;38.59
47897;BME280;39629;51.400;5.494;2023-05-14T12:35:02;101462.56;;;25.21;38.13
47897;BME280;39629;51.400;5.494;2023-05-14T12:40:06;101465.28;;;24.33;34.84
47897;BME280;39629;51.400;5.494;2023-05-14T12:45:10;101466.25;;;23.95;37.22
47897;BME280;39629;51.400;5.494;2023-05-14T12:50:12;101461.22;;;24.43;31.86
47897;BME280;39629;51.400;5.494;2023-05-14T12:55:13;101452.03;;;23.17;30.74
47897;BME280;39629;51.400;5.494;2023-05-14T13:00:17;101448.84;;;24.57;30.80
47897;BME280;39629;51.400;5.494;2023-05-14T13:05:18;101435.09;;;25.14;31.43
47897;BME280;39629;51.400;5.494;2023-05-14T13:10:20;101427.72;;;25.00;32.15
47897;BME280;39629;51.400;5.494;2023-05-14T13:15:23;101423.41;;;25.63;30.09
47897;BME280;39629;51.400;5.494;2023-05-14T13:20:24;101420.63;;;24.99;32.82
47897;BME280;39629;51.400;5.494;2023-05-14T13:25:26;101422.25;;;25.19;34.10
47897;BME280;39629;51.400;5.494;2023-05-14T13:30:29;101424.84;;;24.34;31.86
47897;BME280;39629;51.400;5.494;2023-05-14T13:35:32;101419.16;;;25.09;31.36
47897;BME280;39629;51.400;5.494;2023-05-14T13:40:33;101416.69;;;24.89;29.69
47897;BME280;39629;51.400;5.494;2023-05-14T13:45:36;101415.91;;;25.20;31.46
47897;BME280;39629;51.400;5.494;2023-05-14T13:50:38;101411.31;;;24.36;31.85
47897;BME280;39629;51.400;5.494;2023-05-14T13:55:39;101416.00;;;24.67;33.35
47897;BME280;39629;51.400;5.494;2023-05-14T14:00:42;101397.66;;;24.58;34.19
47897;BME280;39629;51.400;5.494;2023-05-14T14:05:44;101401.72;;;24.49;34.04
47897;BME280;39629;51.400;5.494;2023-05-14T14:10:46;101395.81;;;23.89;33.35
47897;BME280;39629;51.400;5.494;2023-05-14T14:15:49;101389.19;;;24.13;34.83
47897;BME280;39629;51.400;5.494;2023-05-14T14:20:51;101384.94;;;24.27;37.00
47897;BME280;39629;51.400;5.494;2023-05-14T14:25:52;101382.31;;;24.08;33.57
47897;BME280;39629;51.400;5.494;2023-05-14T14:30:55;101380.66;;;23.88;38.35
47897;BME280;39629;51.400;5.494;2023-05-14T14:35:57;101377.06;;;22.93;34.25
47897;BME280;39629;51.400;5.494;2023-05-14T14:40:58;101386.53;;;23.58;39.06
47897;BME280;39629;51.400;5.494;2023-05-14T14:46:03;101373.34;;;22.96;36.17
47897;BME280;39629;51.400;5.494;2023-05-14T14:51:06;101380.38;;;22.59;40.13
47897;BME280;39629;51.400;5.494;2023-05-14T14:56:07;101383.31;;;22.32;37.12
47897;BME280;39629;51.400;5.494;2023-05-14T15:01:10;101370.72;;;22.13;39.95
47897;BME280;39629;51.400;5.494;2023-05-14T15:06:12;101369.41;;;22.24;40.95
47897;BME280;39629;51.400;5.494;2023-05-14T15:11:13;101369.13;;;21.65;41.72
47897;BME280;39629;51.400;5.494;2023-05-14T15:16:16;101379.66;;;21.92;42.55
47897;BME280;39629;51.400;5.494;2023-05-14T15:21:18;101367.41;;;22.07;39.34
47897;BME280;39629;51.400;5.494;2023-05-14T15:26:19;101371.91;;;21.84;41.34
47897;BME280;39629;51.400;5.494;2023-05-14T15:31:23;101365.84;;;22.01;41.90
47897;BME280;39629;51.400;5.494;2023-05-14T15:36:25;101362.47;;;21.53;42.98
47897;BME280;39629;51.400;5.494;2023-05-14T15:41:27;101363.94;;;21.38;45.36
47897;BME280;39629;51.400;5.494;2023-05-14T15:46:31;101355.59;;;21.68;44.01
47897;BME280;39629;51.400;5.494;2023-05-14T15:51:33;101366.50;;;21.86;46.29
47897;BME280;39629;51.400;5.494;2023-05-14T15:56:34;101356.50;;;21.47;48.79
47897;BME280;39629;51.400;5.494;2023-05-14T16:01:37;101352.69;;;21.52;47.93
47897;BME280;39629;51.400;5.494;2023-05-14T16:06:39;101359.72;;;21.33;48.95
47897;BME280;39629;51.400;5.494;2023-05-14T16:11:41;101350.78;;;21.08;47.79
47897;BME280;39629;51.400;5.494;2023-05-14T16:16:44;101354.03;;;21.40;46.49
47897;BME280;39629;51.400;5.494;2023-05-14T16:21:46;101355.94;;;21.15;45.98
47897;BME280;39629;51.400;5.494;2023-05-14T16:26:47;101356.22;;;21.07;44.51
47897;BME280;39629;51.400;5.494;2023-05-14T16:31:50;101351.50;;;21.37;47.03
47897;BME280;39629;51.400;5.494;2023-05-14T16:36:52;101349.06;;;21.31;41.13
47897;BME280;39629;51.400;5.494;2023-05-14T16:41:54;101349.41;;;20.98;41.53
47897;BME280;39629;51.400;5.494;2023-05-14T16:46:56;101355.94;;;20.91;43.40
47897;BME280;39629;51.400;5.494;2023-05-14T16:51:58;101354.50;;;21.04;44.17
47897;BME280;39629;51.400;5.494;2023-05-14T16:57:00;101355.09;;;20.89;43.14
47897;BME280;39629;51.400;5.494;2023-05-14T17:02:03;101350.00;;;20.59;45.40
47897;BME280;39629;51.400;5.494;2023-05-14T17:07:05;101353.69;;;20.55;45.64
47897;BME280;39629;51.400;5.494;2023-05-14T17:12:07;101353.53;;;20.34;45.40
47897;BME280;39629;51.400;5.494;2023-05-14T17:17:11;101346.31;;;20.36;47.10
47897;BME280;39629;51.400;5.494;2023-05-14T17:22:13;101353.53;;;20.34;49.02
47897;BME280;39629;51.400;5.494;2023-05-14T17:27:14;101364.03;;;20.14;50.98
47897;BME280;39629;51.400;5.494;2023-05-14T17:32:17;101364.53;;;19.98;52.90
47897;BME280;39629;51.400;5.494;2023-05-14T17:37:19;101366.03;;;19.80;53.47
47897;BME280;39629;51.400;5.494;2023-05-14T17:42:21;101365.56;;;19.94;55.69
47897;BME280;39629;51.400;5.494;2023-05-14T17:47:23;101367.22;;;19.98;58.26
47897;BME280;39629;51.400;5.494;2023-05-14T17:52:25;101375.06;;;19.49;77.86
47897;BME280;39629;51.400;5.494;2023-05-14T17:57:27;101377.59;;;19.22;100.00
47897;BME280;39629;51.400;5.494;2023-05-14T18:02:30;101379.56;;;19.17;100.00
47897;BME280;39629;51.400;5.494;2023-05-14T18:07:31;101386.91;;;19.09;100.00
47897;BME280;39629;51.400;5.494;2023-05-14T18:12:33;101389.22;;;18.59;100.00
47897;BME280;39629;51.400;5.494;2023-05-14T18:17:36;101396.00;;;18.36;100.00
47897;BME280;39629;51.400;5.494;2023-05-14T18:22:37;101406.41;;;18.12;100.00
47897;BME280;39629;51.400;5.494;2023-05-14T18:27:39;101399.13;;;18.19;100.00
47897;BME280;39629;51.400;5.494;2023-05-14T18:32:45;101407.59;;;17.99;100.00
47897;BME280;39629;51.400;5.494;2023-05-14T18:37:46;101406.47;;;17.73;100.00
47897;BME280;39629;51.400;5.494;2023-05-14T18:42:48;101411.38;;;17.52;100.00
47897;BME280;39629;51.400;5.494;2023-05-14T18:47:51;101414.34;;;17.37;100.00
47897;BME280;39629;51.400;5.494;2023-05-14T18:52:53;101413.66;;;17.27;100.00
47897;BME280;39629;51.400;5.494;2023-05-14T18:57:54;101417.75;;;17.01;100.00
47897;BME280;39629;51.400;5.494;2023-05-14T19:02:58;101423.41;;;16.84;100.00
47897;BME280;39629;51.400;5.494;2023-05-14T19:07:59;101419.25;;;16.69;100.00
47897;BME280;39629;51.400;5.494;2023-05-14T19:13:01;101427.03;;;16.30;100.00
47897;BME280;39629;51.400;5.494;2023-05-14T19:18:04;101430.78;;;16.17;100.00
47897;BME280;39629;51.400;5.494;2023-05-14T19:23:05;101438.72;;;16.20;100.00
47897;BME280;39629;51.400;5.494;2023-05-14T19:28:07;101439.22;;;15.86;100.00
47897;BME280;39629;51.400;5.494;2023-05-14T19:33:10;101442.97;;;15.73;100.00
47897;BME280;39629;51.400;5.494;2023-05-14T19:38:11;101444.94;;;15.58;100.00
47897;BME280;39629;51.400;5.494;2023-05-14T19:43:14;101448.50;;;15.57;100.00
47897;BME280;39629;51.400;5.494;2023-05-14T19:48:17;101443.41;;;15.42;100.00
47897;BME280;39629;51.400;5.494;2023-05-14T19:53:19;101444.28;;;15.41;100.00
47897;BME280;39629;51.400;5.494;2023-05-14T19:58:20;101443.72;;;15.15;100.00
47897;BME280;39629;51.400;5.494;2023-05-14T20:03:23;101447.34;;;15.07;100.00
47897;BME280;39629;51.400;5.494;2023-05-14T20:08:25;101442.22;;;14.91;100.00
47897;BME280;39629;51.400;5.494;2023-05-14T20:13:28;101448.47;;;14.86;100.00
47897;BME280;39629;51.400;5.494;2023-05-14T20:18:32;101453.00;;;14.73;100.00
47897;BME280;39629;51.400;5.494;2023-05-14T20:23:34;101451.44;;;14.56;100.00
47897;BME280;39629;51.400;5.494;2023-05-14T20:28:35;101457.59;;;14.55;100.00
47897;BME280;39629;51.400;5.494;2023-05-14T20:33:38;101453.19;;;14.54;100.00
47897;BME280;39629;51.400;5.494;2023-05-14T20:38:40;101450.59;;;14.50;100.00
47897;BME280;39629;51.400;5.494;2023-05-14T20:43:41;101447.13;;;14.41;100.00
47897;BME280;39629;51.400;5.494;2023-05-14T20:48:45;101460.47;;;14.30;100.00
47897;BME280;39629;51.400;5.494;2023-05-14T20:53:47;101456.97;;;14.28;100.00
47897;BME280;39629;51.400;5.494;2023-05-14T20:58:49;101455.31;;;14.15;100.00
47897;BME280;39629;51.400;5.494;2023-05-14T21:03:52;101456.25;;;14.03;100.00
47897;BME280;39629;51.400;5.494;2023-05-14T21:08:53;101450.19;;;13.81;100.00
47897;BME280;39629;51.400;5.494;2023-05-14T21:13:55;101450.28;;;13.67;100.00
47897;BME280;39629;51.400;5.494;2023-05-14T21:18:57;101452.16;;;13.45;100.00
47897;BME280;39629;51.400;5.494;2023-05-14T21:23:59;101465.41;;;13.46;100.00
47897;BME280;39629;51.400;5.494;2023-05-14T21:29:01;101448.75;;;13.24;100.00
47897;BME280;39629;51.400;5.494;2023-05-14T21:34:04;101447.91;;;13.19;100.00
47897;BME280;39629;51.400;5.494;2023-05-14T21:39:06;101440.84;;;13.20;100.00
47897;BME280;39629;51.400;5.494;2023-05-14T21:44:07;101442.69;;;13.01;100.00
47897;BME280;39629;51.400;5.494;2023-05-14T21:49:10;101439.16;;;13.00;100.00
47897;BME280;39629;51.400;5.494;2023-05-14T21:54:12;101430.38;;;12.92;100.00
47897;BME280;39629;51.400;5.494;2023-05-14T21:59:13;101416.31;;;12.84;100.00
47897;BME280;39629;51.400;5.494;2023-05-14T22:04:16;101429.53;;;12.76;100.00
47897;BME280;39629;51.400;5.494;2023-05-14T22:09:18;101430.41;;;12.67;100.00
47897;BME280;39629;51.400;5.494;2023-05-14T22:14:20;101433.94;;;12.63;100.00
47897;BME280;39629;51.400;5.494;2023-05-14T22:19:22;101421.66;;;12.51;100.00
47897;BME280;39629;51.400;5.494;2023-05-14T22:24:25;101410.22;;;12.49;100.00
47897;BME280;39629;51.400;5.494;2023-05-14T22:29:26;101426.91;;;12.40;100.00
47897;BME280;39629;51.400;5.494;2023-05-14T22:34:29;101426.03;;;12.34;100.00
47897;BME280;39629;51.400;5.494;2023-05-14T22:39:30;101421.66;;;12.33;100.00
47897;BME280;39629;51.400;5.494;2023-05-14T22:44:32;101415.47;;;12.23;100.00
47897;BME280;39629;51.400;5.494;2023-05-14T22:49:36;101413.75;;;12.11;100.00
47897;BME280;39629;51.400;5.494;2023-05-14T22:54:37;101413.75;;;12.08;100.00
47897;BME280;39629;51.400;5.494;2023-05-14T22:59:39;101404.97;;;12.00;100.00
47897;BME280;39629;51.400;5.494;2023-05-14T23:04:41;101409.34;;;11.90;100.00
47897;BME280;39629;51.400;5.494;2023-05-14T23:09:43;101406.72;;;11.88;100.00
47897;BME280;39629;51.400;5.494;2023-05-14T23:14:44;101403.19;;;11.80;100.00
47897;BME280;39629;51.400;5.494;2023-05-14T23:19:47;101397.00;;;11.78;100.00
47897;BME280;39629;51.400;5.494;2023-05-14T23:24:49;101402.28;;;11.78;100.00
47897;BME280;39629;51.400;5.494;2023-05-14T23:29:50;101395.25;;;11.75;100.00
47897;BME280;39629;51.400;5.494;2023-05-14T23:34:54;101393.47;;;11.71;100.00
47897;BME280;39629;51.400;5.494;2023-05-14T23:39:55;101385.56;;;11.73;100.00
47897;BME280;39629;51.400;5.494;2023-05-14T23:44:57;101383.84;;;11.69;100.00
47897;BME280;39629;51.400;5.494;2023-05-14T23:50:00;101392.59;;;11.58;100.00
47897;BME280;39629;51.400;5.494;2023-05-14T23:55:02;101386.44;;;11.52;100.00
